createdAt,value
2022-11-29T00:01:22.106Z,91.3
2022-11-29T00:04:22.102Z,91.3
2022-11-29T00:07:22.167Z,91.3
2022-11-29T00:10:22.129Z,91.3
2022-11-29T00:13:22.117Z,91.3
2022-11-29T00:16:22.163Z,91.3
2022-11-29T00:19:22.110Z,91.2
2022-11-29T00:22:22.116Z,91.2
2022-11-29T00:25:22.116Z,91.2
2022-11-29T00:28:22.164Z,91.1
2022-11-29T00:31:22.118Z,91
2022-11-29T00:34:22.120Z,91.1
2022-11-29T00:37:22.120Z,91.1
2022-11-29T00:40:22.124Z,91
2022-11-29T00:43:22.137Z,91.1
2022-11-29T00:46:22.227Z,91.1
2022-11-29T00:49:22.132Z,91.1
2022-11-29T00:52:22.131Z,91.1
2022-11-29T00:55:22.134Z,91.1
2022-11-29T00:58:22.157Z,91.1
2022-11-29T01:01:22.191Z,91.1
2022-11-29T01:04:22.165Z,91.1
2022-11-29T01:07:22.214Z,91.2
2022-11-29T01:10:22.141Z,91.2
2022-11-29T01:13:22.155Z,91.2
2022-11-29T01:16:22.238Z,91.2
2022-11-29T01:19:22.142Z,91.2
2022-11-29T01:22:22.220Z,91.2
2022-11-29T01:25:22.148Z,91.2
2022-11-29T01:28:22.163Z,91.2
2022-11-29T01:31:22.156Z,91.2
2022-11-29T01:34:22.152Z,91.2
2022-11-29T01:37:22.149Z,91.2
2022-11-29T01:40:22.186Z,91.2
2022-11-29T01:43:22.168Z,91.3
2022-11-29T01:46:22.243Z,91.3
2022-11-29T01:49:22.159Z,91.3
2022-11-29T01:52:22.163Z,91.3
2022-11-29T01:55:22.161Z,91.3
2022-11-29T01:58:22.212Z,91.2
2022-11-29T02:01:22.170Z,91.2
2022-11-29T02:04:22.168Z,91.2
2022-11-29T02:07:22.200Z,91.2
2022-11-29T02:10:22.170Z,91.2
2022-11-29T02:13:22.183Z,91.1
2022-11-29T02:16:22.199Z,91.1
2022-11-29T02:19:22.176Z,91.1
2022-11-29T02:22:22.178Z,91.1
2022-11-29T02:25:22.182Z,91.1
2022-11-29T02:28:22.187Z,91.1
2022-11-29T02:31:22.186Z,91.1
2022-11-29T02:34:22.216Z,91.2
2022-11-29T02:37:22.213Z,91.1
2022-11-29T02:40:22.191Z,91.1
2022-11-29T02:43:22.209Z,91.2
2022-11-29T02:46:22.229Z,91.2
2022-11-29T02:49:22.206Z,91.2
2022-11-29T02:52:22.231Z,91.2
2022-11-29T02:55:22.207Z,91.3
2022-11-29T02:58:22.368Z,91.3
2022-11-29T03:01:22.298Z,91.3
2022-11-29T03:04:22.207Z,91.3
2022-11-29T03:07:22.257Z,91.4
2022-11-29T03:10:22.245Z,91.4
2022-11-29T03:13:22.233Z,91.4
2022-11-29T03:16:22.225Z,91.5
2022-11-29T03:19:22.225Z,91.5
2022-11-29T03:22:22.229Z,91.6
2022-11-29T03:25:22.240Z,91.6
2022-11-29T03:28:22.288Z,91.6
2022-11-29T03:31:22.278Z,91.7
2022-11-29T03:34:22.239Z,91.7
2022-11-29T03:37:22.232Z,91.7
2022-11-29T03:40:22.235Z,91.7
2022-11-29T03:43:22.244Z,91.8
2022-11-29T03:46:22.309Z,91.8
2022-11-29T03:49:22.243Z,91.9
2022-11-29T03:52:22.239Z,91.9
2022-11-29T03:55:22.242Z,92
2022-11-29T03:58:22.404Z,92
2022-11-29T04:01:22.431Z,92
2022-11-29T04:04:22.270Z,92.1
2022-11-29T04:07:22.300Z,92.1
2022-11-29T04:10:22.251Z,92.1
2022-11-29T04:13:22.271Z,92.2
2022-11-29T04:16:22.305Z,92.2
2022-11-29T04:19:22.263Z,92.2
2022-11-29T04:22:22.290Z,92.3
2022-11-29T04:25:22.272Z,92.3
2022-11-29T04:28:22.282Z,92.3
2022-11-29T04:31:22.331Z,92.3
2022-11-29T04:34:22.279Z,92.3
2022-11-29T04:37:22.275Z,92.3
2022-11-29T04:40:22.302Z,92.3
2022-11-29T04:43:22.291Z,92.3
2022-11-29T04:46:22.322Z,92.2
2022-11-29T04:49:22.292Z,92.2
2022-11-29T04:52:22.295Z,92.2
2022-11-29T04:55:27.753Z,92.3
2022-11-29T04:58:22.347Z,92.3
2022-11-29T05:01:22.374Z,92.3
2022-11-29T05:04:22.305Z,92.3
2022-11-29T05:07:22.388Z,92.3
2022-11-29T05:10:22.316Z,92.3
2022-11-29T05:13:22.329Z,92.4
2022-11-29T05:16:22.383Z,92.4
2022-11-29T05:19:22.325Z,92.4
2022-11-29T05:22:22.330Z,92.5
2022-11-29T05:25:22.323Z,92.4
2022-11-29T05:28:22.340Z,92.4
2022-11-29T05:31:22.431Z,92.4
2022-11-29T05:34:22.354Z,92.5
2022-11-29T05:37:22.341Z,92.4
2022-11-29T05:40:22.336Z,92.4
2022-11-29T05:43:22.355Z,92.4
2022-11-29T05:46:22.387Z,92.5
2022-11-29T05:49:22.348Z,92.4
2022-11-29T05:52:22.380Z,92.4
2022-11-29T05:55:22.356Z,92.4
2022-11-29T05:58:25.735Z,92.4
2022-11-29T06:01:22.359Z,92.4
2022-11-29T06:04:22.368Z,92.4
2022-11-29T06:07:22.403Z,92.5
2022-11-29T06:10:22.395Z,92.5
2022-11-29T06:13:22.391Z,92.5
2022-11-29T06:16:22.418Z,92.6
2022-11-29T06:19:22.390Z,92.6
2022-11-29T06:22:22.388Z,92.7
2022-11-29T06:25:22.390Z,92.7
2022-11-29T06:28:22.521Z,92.8
2022-11-29T06:31:22.485Z,92.9
2022-11-29T06:34:25.069Z,93
2022-11-29T06:37:22.399Z,93
2022-11-29T06:40:22.401Z,93
2022-11-29T06:43:22.417Z,93.1
2022-11-29T06:46:22.450Z,93.1
2022-11-29T06:49:22.409Z,93.2
2022-11-29T06:52:22.412Z,93.3
2022-11-29T06:55:22.417Z,93.3
2022-11-29T06:58:22.629Z,93.4
2022-11-29T07:01:22.457Z,93.4
2022-11-29T07:04:22.455Z,93.5
2022-11-29T07:07:22.506Z,93.5
2022-11-29T07:10:22.437Z,93.6
2022-11-29T07:13:22.450Z,93.6
2022-11-29T07:16:22.495Z,93.7
2022-11-29T07:19:22.448Z,93.7
2022-11-29T07:22:22.479Z,93.7
2022-11-29T07:25:22.453Z,93.7
2022-11-29T07:28:22.472Z,93.7
2022-11-29T07:31:22.518Z,93.7
2022-11-29T07:34:22.465Z,93.6
2022-11-29T07:37:22.461Z,93.6
2022-11-29T07:40:22.496Z,93.5
2022-11-29T07:43:22.486Z,93.6
2022-11-29T07:46:22.503Z,93.5
2022-11-29T07:49:22.486Z,93.6
2022-11-29T07:52:22.492Z,93.5
2022-11-29T07:55:22.494Z,93.4
2022-11-29T07:58:22.585Z,93.3
2022-11-29T08:01:22.584Z,93.3
2022-11-29T08:04:22.504Z,93.2
2022-11-29T08:07:22.551Z,93.1
2022-11-29T08:10:22.509Z,93
2022-11-29T08:13:22.538Z,92.9
2022-11-29T08:16:22.575Z,92.8
2022-11-29T08:19:22.527Z,92.8
2022-11-29T08:22:22.536Z,92.8
2022-11-29T08:25:22.535Z,92.7
2022-11-29T08:28:22.557Z,92.7
2022-11-29T08:31:22.574Z,92.6
2022-11-29T08:34:22.570Z,92.6
2022-11-29T08:37:22.555Z,92.5
2022-11-29T08:40:22.559Z,92.5
2022-11-29T08:43:22.581Z,92.5
2022-11-29T08:46:22.635Z,92.5
2022-11-29T08:49:22.572Z,92.4
2022-11-29T08:52:22.595Z,92.3
2022-11-29T08:55:22.602Z,92.3
2022-11-29T08:58:22.610Z,92.3
2022-11-29T09:01:22.692Z,92.2
2022-11-29T09:04:22.608Z,92.2
2022-11-29T09:07:22.689Z,92.1
2022-11-29T09:10:22.701Z,91.9
2022-11-29T09:13:22.669Z,91.8
2022-11-29T09:16:22.712Z,91.8
2022-11-29T09:19:22.701Z,91.8
2022-11-29T09:22:22.703Z,91.8
2022-11-29T09:25:22.702Z,91.6
2022-11-29T09:28:22.744Z,91.5
2022-11-29T09:31:22.782Z,91.5
2022-11-29T09:34:22.713Z,91.5
2022-11-29T09:37:22.711Z,91.5
2022-11-29T09:40:22.709Z,91.3
2022-11-29T09:43:22.745Z,91.2
2022-11-29T09:46:22.822Z,91.1
2022-11-29T09:49:22.714Z,91
2022-11-29T09:52:22.725Z,90.9
2022-11-29T09:55:22.732Z,90.8
2022-11-29T09:58:22.741Z,90.7
2022-11-29T10:01:22.761Z,90.7
2022-11-29T10:04:22.769Z,90.6
2022-11-29T10:07:22.767Z,90.4
2022-11-29T10:10:22.746Z,90.4
2022-11-29T10:13:22.754Z,90.4
2022-11-29T10:16:22.783Z,90.4
2022-11-29T10:19:22.752Z,90.5
2022-11-29T10:22:22.780Z,90.4
2022-11-29T10:25:22.741Z,90.2
2022-11-29T10:28:22.755Z,90.2
2022-11-29T10:31:22.747Z,90.3
2022-11-29T10:34:22.748Z,90.3
2022-11-29T10:37:22.748Z,90.4
2022-11-29T10:40:22.781Z,90.4
2022-11-29T10:43:22.766Z,90.5
2022-11-29T10:46:22.804Z,90.6
2022-11-29T10:49:22.760Z,90.5
2022-11-29T10:52:22.767Z,90.5
2022-11-29T10:55:22.762Z,90.4
2022-11-29T10:58:27.612Z,90.5
2022-11-29T11:01:22.805Z,90.5
2022-11-29T11:04:22.770Z,90.3
2022-11-29T11:07:22.861Z,90.2
2022-11-29T11:10:22.774Z,90.2
2022-11-29T11:13:22.787Z,90.1
2022-11-29T11:16:22.833Z,90.1
2022-11-29T11:19:22.782Z,90.2
2022-11-29T11:22:22.797Z,90.2
2022-11-29T11:25:22.790Z,90
2022-11-29T11:28:22.808Z,90
2022-11-29T11:31:22.893Z,90.1
2022-11-29T11:34:22.833Z,90
2022-11-29T11:37:22.807Z,90.1
2022-11-29T11:40:22.829Z,90.2
2022-11-29T11:43:22.819Z,90.2
2022-11-29T11:46:22.871Z,90.2
2022-11-29T11:49:22.819Z,90.2
2022-11-29T11:52:22.852Z,90.2
2022-11-29T11:55:22.827Z,90.2
2022-11-29T11:58:22.843Z,90.3
2022-11-29T12:01:22.844Z,90.2
2022-11-29T12:04:22.839Z,90.1
2022-11-29T12:07:33.934Z,90.2
2022-11-29T12:10:22.876Z,90.1
2022-11-29T12:13:22.869Z,90.1
2022-11-29T12:16:22.857Z,90.2
2022-11-29T12:19:22.863Z,90.3
2022-11-29T12:22:22.917Z,90.3
2022-11-29T12:25:22.868Z,90.3
2022-11-29T12:28:22.912Z,90.2
2022-11-29T12:31:22.933Z,90.1
2022-11-29T12:34:22.986Z,90.1
2022-11-29T12:37:22.891Z,90.2
2022-11-29T12:40:22.893Z,90.3
2022-11-29T12:43:22.908Z,90.3
2022-11-29T12:46:22.968Z,90.3
2022-11-29T12:49:22.912Z,90.4
2022-11-29T12:52:22.920Z,90.4
2022-11-29T12:55:22.922Z,90.5
2022-11-29T12:58:22.937Z,90.4
2022-11-29T13:01:23.026Z,90.3
2022-11-29T13:04:22.963Z,90.4
2022-11-29T13:07:22.949Z,90.5
2022-11-29T13:10:22.945Z,90.6
2022-11-29T13:13:22.967Z,90.6
2022-11-29T13:16:26.389Z,90.7
2022-11-29T13:19:22.965Z,90.7
2022-11-29T13:22:22.997Z,90.7
2022-11-29T13:25:22.985Z,90.7
2022-11-29T13:28:23.006Z,90.7
2022-11-29T13:31:23.065Z,90.8
2022-11-29T13:34:23.011Z,90.9
2022-11-29T13:37:23.019Z,91
2022-11-29T13:40:23.062Z,91
2022-11-29T13:43:23.045Z,91.1
2022-11-29T13:46:23.123Z,91.2
2022-11-29T13:49:23.053Z,91.4
2022-11-29T13:52:23.064Z,91.5
2022-11-29T13:55:23.087Z,91.6
2022-11-29T13:58:23.169Z,91.6
2022-11-29T14:01:23.108Z,91.7
2022-11-29T14:04:23.091Z,91.7
2022-11-29T14:07:23.139Z,91.7
2022-11-29T14:10:28.980Z,91.7
2022-11-29T14:13:23.129Z,91.8
2022-11-29T14:16:23.173Z,91.9
2022-11-29T14:19:23.137Z,92
2022-11-29T14:22:23.145Z,92.1
2022-11-29T14:25:49.554Z,92.1
2022-11-29T14:28:23.173Z,92.2
2022-11-29T14:31:23.208Z,92.2
2022-11-29T14:34:23.210Z,92.3
2022-11-29T14:37:23.189Z,92.4
2022-11-29T14:40:23.199Z,92.4
2022-11-29T14:43:23.233Z,92.5
2022-11-29T14:46:27.707Z,92.6
2022-11-29T14:49:23.224Z,92.7
2022-11-29T14:52:23.260Z,92.9
2022-11-29T14:55:23.242Z,93
2022-11-29T14:58:23.267Z,93.1
2022-11-29T15:01:23.294Z,93.2
2022-11-29T15:04:23.275Z,93.4
2022-11-29T15:07:23.317Z,93.5
2022-11-29T15:10:23.311Z,93.6
2022-11-29T15:13:23.309Z,93.8
2022-11-29T15:16:23.335Z,93.9
2022-11-29T15:19:23.311Z,94
2022-11-29T15:22:23.319Z,94.1
2022-11-29T15:25:23.330Z,94.2
2022-11-29T15:28:23.399Z,94.3
2022-11-29T15:31:23.390Z,94.4
2022-11-29T15:34:23.346Z,94.5
2022-11-29T15:37:23.362Z,94.5
2022-11-29T15:40:23.364Z,94.6
2022-11-29T15:43:23.380Z,94.7
2022-11-29T15:46:23.414Z,94.7
2022-11-29T15:49:23.390Z,94.8
2022-11-29T15:52:23.395Z,94.8
2022-11-29T15:55:23.401Z,94.8
2022-11-29T15:58:23.438Z,94.9
2022-11-29T16:01:23.455Z,94.9
2022-11-29T16:04:23.449Z,95
2022-11-29T16:07:23.485Z,95.1
2022-11-29T16:10:23.435Z,95.1
2022-11-29T16:13:23.455Z,95.2
2022-11-29T16:16:23.495Z,95.2
2022-11-29T16:19:23.465Z,95.3
2022-11-29T16:22:23.499Z,95.2
2022-11-29T16:25:23.483Z,95.3
2022-11-29T16:28:23.507Z,95.3
2022-11-29T16:31:23.569Z,95.3
2022-11-29T16:34:23.505Z,95.3
2022-11-29T16:37:23.510Z,95.3
2022-11-29T16:40:23.548Z,95.4
2022-11-29T16:43:23.545Z,95.4
2022-11-29T16:46:23.535Z,95.5
2022-11-29T16:49:23.553Z,95.5
2022-11-29T16:52:23.565Z,95.5
2022-11-29T16:55:23.564Z,95.6
2022-11-29T16:58:23.693Z,95.7
2022-11-29T17:01:23.640Z,95.7
2022-11-29T17:04:24.086Z,95.8
2022-11-29T17:07:23.657Z,95.9
2022-11-29T17:10:23.690Z,95.9
2022-11-29T17:13:23.620Z,96
2022-11-29T17:16:23.710Z,96
2022-11-29T17:19:23.811Z,96.1
2022-11-29T17:22:23.643Z,96.1
2022-11-29T17:25:23.650Z,96.1
2022-11-29T17:28:23.669Z,96.2
2022-11-29T17:31:23.714Z,96.2
2022-11-29T17:34:23.710Z,96.3
2022-11-29T17:37:23.743Z,96.3
2022-11-29T17:40:23.703Z,96.3
2022-11-29T17:43:23.726Z,96.3
2022-11-29T17:46:23.730Z,96.3
2022-11-29T17:49:23.733Z,96.3
2022-11-29T17:52:23.770Z,96.4
2022-11-29T17:55:26.944Z,96.4
2022-11-29T17:58:23.773Z,96.4
2022-11-29T18:01:23.853Z,96.4
2022-11-29T18:04:23.781Z,96.5
2022-11-29T18:07:23.828Z,96.4
2022-11-29T18:10:23.823Z,96.4
2022-11-29T18:13:23.820Z,96.4
2022-11-29T18:16:23.879Z,96.3
2022-11-29T18:19:23.826Z,96.3
2022-11-29T18:22:23.830Z,96.2
2022-11-29T18:25:38.526Z,96.2
2022-11-29T18:28:23.891Z,96.1
2022-11-29T18:31:23.874Z,96.1
2022-11-29T18:34:23.881Z,96
2022-11-29T18:37:40.225Z,96
2022-11-29T18:40:23.897Z,96
2022-11-29T18:43:23.915Z,95.9
2022-11-29T18:46:23.981Z,95.9
2022-11-29T18:49:23.931Z,95.9
2022-11-29T18:52:23.945Z,95.9
2022-11-29T18:55:23.956Z,95.9
2022-11-29T18:58:24.084Z,95.9
2022-11-29T19:01:23.999Z,95.9
2022-11-29T19:04:24.012Z,95.9
2022-11-29T19:07:24.067Z,95.9
2022-11-29T19:10:24.006Z,95.9
2022-11-29T19:13:24.028Z,95.9
2022-11-29T19:16:24.055Z,95.9
2022-11-29T19:19:24.041Z,96
2022-11-29T19:22:24.087Z,96
2022-11-29T19:25:24.073Z,96
2022-11-29T19:28:24.146Z,96.1
2022-11-29T19:31:24.144Z,96.1
2022-11-29T19:34:24.106Z,96.1
2022-11-29T19:37:24.122Z,96.1
2022-11-29T19:40:24.153Z,96.2
2022-11-29T19:43:24.148Z,96.2
2022-11-29T19:46:24.176Z,96.3
2022-11-29T19:49:24.162Z,96.3
2022-11-29T19:52:24.167Z,96.3
2022-11-29T19:55:24.180Z,96.3
2022-11-29T19:58:24.230Z,96.4
2022-11-29T20:01:24.308Z,96.4
2022-11-29T20:04:24.211Z,96.4
2022-11-29T20:07:24.251Z,96.4
2022-11-29T20:10:24.232Z,96.5
2022-11-29T20:13:24.252Z,96.5
2022-11-29T20:16:24.288Z,96.5
2022-11-29T20:19:24.258Z,96.5
2022-11-29T20:22:24.272Z,96.5
2022-11-29T20:25:24.283Z,96.6
2022-11-29T20:28:24.304Z,96.6
2022-11-29T20:31:24.378Z,96.6
2022-11-29T20:34:24.341Z,96.7
2022-11-29T20:37:24.321Z,96.7
2022-11-29T20:40:24.335Z,96.7
2022-11-29T20:43:24.354Z,96.7
2022-11-29T20:46:24.388Z,96.8
2022-11-29T20:49:24.353Z,96.8
2022-11-29T20:52:24.388Z,96.9
2022-11-29T20:55:24.381Z,96.8
2022-11-29T20:58:24.396Z,96.8
2022-11-29T21:01:24.432Z,96.9
2022-11-29T21:04:24.395Z,96.9
2022-11-29T21:07:24.435Z,96.9
2022-11-29T21:10:24.439Z,96.9
2022-11-29T21:13:24.425Z,97
2022-11-29T21:16:24.447Z,97
2022-11-29T21:19:24.433Z,97
2022-11-29T21:22:24.441Z,97
2022-11-29T21:25:24.448Z,97
2022-11-29T21:28:24.490Z,97.1
2022-11-29T21:31:24.547Z,97.1
2022-11-29T21:34:24.470Z,97.1
2022-11-29T21:37:24.486Z,97.2
2022-11-29T21:40:24.488Z,97.2
2022-11-29T21:43:43.545Z,97.2
2022-11-29T21:46:24.538Z,97.2
2022-11-29T21:49:24.502Z,97.2
2022-11-29T21:52:24.517Z,97.3
2022-11-29T21:55:31.504Z,97.3
2022-11-29T21:58:24.540Z,97.3
2022-11-29T22:01:24.585Z,97.3
2022-11-29T22:04:24.570Z,97.3
2022-11-29T22:07:24.592Z,97.3
2022-11-29T22:10:24.563Z,97.4
2022-11-29T22:13:24.571Z,97.4
2022-11-29T22:16:24.605Z,97.4
2022-11-29T22:19:24.576Z,97.4
2022-11-29T22:22:27.893Z,97.5
2022-11-29T22:25:24.582Z,97.5
2022-11-29T22:28:24.605Z,97.5
2022-11-29T22:31:24.609Z,97.5
2022-11-29T22:34:24.604Z,97.5
2022-11-29T22:37:24.611Z,97.5
2022-11-29T22:40:24.642Z,97.6
2022-11-29T22:43:24.630Z,97.6
2022-11-29T22:46:24.647Z,97.6
2022-11-29T22:49:24.635Z,97.6
2022-11-29T22:52:24.638Z,97.6
2022-11-29T22:55:24.644Z,97.6
2022-11-29T22:58:24.692Z,97.6
2022-11-29T23:01:24.680Z,97.7
2022-11-29T23:04:24.657Z,97.7
2022-11-29T23:07:24.673Z,97.7
2022-11-29T23:10:24.660Z,97.7
2022-11-29T23:13:24.683Z,97.7
2022-11-29T23:16:24.722Z,97.7
2022-11-29T23:19:24.678Z,97.8
2022-11-29T23:22:24.685Z,97.7
2022-11-29T23:25:24.685Z,97.8
2022-11-29T23:28:24.702Z,97.8
2022-11-29T23:31:24.796Z,97.8
2022-11-29T23:34:24.718Z,97.7
2022-11-29T23:37:24.697Z,97.8
2022-11-29T23:40:24.696Z,97.8
2022-11-29T23:43:24.708Z,97.8
2022-11-29T23:46:24.704Z,97.8
2022-11-29T23:49:24.705Z,97.8
2022-11-29T23:52:24.725Z,97.9
2022-11-29T23:55:24.701Z,97.8
2022-11-29T23:58:24.723Z,97.9
